sensor_id;sensor_type;location;lat;lon;timestamp;pressure;altitude;pressure_sealevel;temperature;humidity
71948;BME280;63257;55.082;38.772;2023-04-25T00:00:01;99827.75;;;12.12;55.10
71948;BME280;63257;55.082;38.772;2023-04-25T00:02:27;99843.44;;;12.15;54.67
71948;BME280;63257;55.082;38.772;2023-04-25T00:04:53;99832.84;;;12.00;55.02
71948;BME280;63257;55.082;38.772;2023-04-25T00:07:25;99819.09;;;11.94;55.32
71948;BME280;63257;55.082;38.772;2023-04-25T00:09:51;99839.94;;;12.00;56.07
71948;BME280;63257;55.082;38.772;2023-04-25T00:12:17;99820.41;;;11.86;55.89
71948;BME280;63257;55.082;38.772;2023-04-25T00:14:43;99830.06;;;11.87;55.86
71948;BME280;63257;55.082;38.772;2023-04-25T00:17:12;99833.84;;;11.83;56.24
71948;BME280;63257;55.082;38.772;2023-04-25T00:19:38;99848.88;;;11.83;56.48
71948;BME280;63257;55.082;38.772;2023-04-25T00:22:04;99840.25;;;11.79;56.38
71948;BME280;63257;55.082;38.772;2023-04-25T00:24:31;99838.25;;;11.68;57.07
71948;BME280;63257;55.082;38.772;2023-04-25T00:26:57;99844.84;;;11.61;57.23
71948;BME280;63257;55.082;38.772;2023-04-25T00:29:22;99838.22;;;11.54;57.10
71948;BME280;63257;55.082;38.772;2023-04-25T00:36:09;99836.75;;;11.34;57.92
71948;BME280;63257;55.082;38.772;2023-04-25T00:38:35;99823.34;;;11.07;58.42
71948;BME280;63257;55.082;38.772;2023-04-25T00:41:01;99831.06;;;11.10;58.75
71948;BME280;63257;55.082;38.772;2023-04-25T00:43:27;99829.63;;;11.04;59.06
71948;BME280;63257;55.082;38.772;2023-04-25T00:46:00;99835.09;;;11.01;59.46
71948;BME280;63257;55.082;38.772;2023-04-25T00:48:26;99829.75;;;10.86;59.46
71948;BME280;63257;55.082;38.772;2023-04-25T00:50:56;99828.31;;;10.81;60.08
71948;BME280;63257;55.082;38.772;2023-04-25T00:53:24;99834.88;;;10.74;60.42
71948;BME280;63257;55.082;38.772;2023-04-25T00:55:50;99827.31;;;10.67;60.28
71948;BME280;63257;55.082;38.772;2023-04-25T00:58:20;99826.94;;;10.58;60.76
71948;BME280;63257;55.082;38.772;2023-04-25T01:00:48;99824.38;;;10.56;60.96
71948;BME280;63257;55.082;38.772;2023-04-25T01:03:19;99835.97;;;10.53;61.09
71948;BME280;63257;55.082;38.772;2023-04-25T01:05:47;99845.59;;;10.55;61.41
71948;BME280;63257;55.082;38.772;2023-04-25T01:08:14;99849.69;;;10.44;61.46
71948;BME280;63257;55.082;38.772;2023-04-25T01:10:40;99848.66;;;10.47;61.44
71948;BME280;63257;55.082;38.772;2023-04-25T01:13:06;99835.22;;;10.34;61.78
71948;BME280;63257;55.082;38.772;2023-04-25T01:15:32;99827.13;;;10.21;62.00
71948;BME280;63257;55.082;38.772;2023-04-25T01:17:58;99825.34;;;10.22;62.00
71948;BME280;63257;55.082;38.772;2023-04-25T01:20:26;99828.75;;;10.24;62.49
71948;BME280;63257;55.082;38.772;2023-04-25T01:22:55;99830.78;;;10.18;62.68
71948;BME280;63257;55.082;38.772;2023-04-25T01:25:22;99828.56;;;10.11;62.91
71948;BME280;63257;55.082;38.772;2023-04-25T01:27:48;99826.88;;;10.10;63.05
71948;BME280;63257;55.082;38.772;2023-04-25T01:30:15;99833.91;;;10.09;62.86
71948;BME280;63257;55.082;38.772;2023-04-25T01:32:42;99832.28;;;10.07;63.33
71948;BME280;63257;55.082;38.772;2023-04-25T01:35:10;99830.75;;;10.02;63.32
71948;BME280;63257;55.082;38.772;2023-04-25T01:37:41;99830.06;;;9.99;63.51
71948;BME280;63257;55.082;38.772;2023-04-25T01:40:11;99836.44;;;9.95;63.58
71948;BME280;63257;55.082;38.772;2023-04-25T01:42:40;99822.91;;;9.85;64.02
71948;BME280;63257;55.082;38.772;2023-04-25T01:45:07;99828.22;;;9.83;64.42
71948;BME280;63257;55.082;38.772;2023-04-25T01:47:34;99828.09;;;9.87;64.40
71948;BME280;63257;55.082;38.772;2023-04-25T01:50:04;99830.00;;;9.83;64.33
71948;BME280;63257;55.082;38.772;2023-04-25T01:52:31;99835.44;;;9.80;64.74
71948;BME280;63257;55.082;38.772;2023-04-25T01:54:59;99835.63;;;9.77;64.91
71948;BME280;63257;55.082;38.772;2023-04-25T01:57:30;99829.63;;;9.73;65.47
71948;BME280;63257;55.082;38.772;2023-04-25T02:00:02;99820.66;;;9.60;65.69
71948;BME280;63257;55.082;38.772;2023-04-25T02:02:41;99826.63;;;9.63;65.91
71948;BME280;63257;55.082;38.772;2023-04-25T02:05:20;99814.09;;;9.51;65.81
71948;BME280;63257;55.082;38.772;2023-04-25T02:07:47;99823.28;;;9.60;65.89
71948;BME280;63257;55.082;38.772;2023-04-25T02:10:15;99819.81;;;9.59;65.47
71948;BME280;63257;55.082;38.772;2023-04-25T02:13:01;99830.19;;;9.62;65.99
71948;BME280;63257;55.082;38.772;2023-04-25T02:15:39;99837.94;;;9.65;65.47
71948;BME280;63257;55.082;38.772;2023-04-25T02:18:34;99825.72;;;9.64;65.64
71948;BME280;63257;55.082;38.772;2023-04-25T02:21:00;99833.00;;;9.59;66.02
71948;BME280;63257;55.082;38.772;2023-04-25T02:23:28;99819.28;;;9.53;66.15
71948;BME280;63257;55.082;38.772;2023-04-25T02:25:54;99819.19;;;9.54;66.74
71948;BME280;63257;55.082;38.772;2023-04-25T02:28:24;99826.34;;;9.52;66.18
71948;BME280;63257;55.082;38.772;2023-04-25T02:30:50;99814.28;;;9.46;66.90
71948;BME280;63257;55.082;38.772;2023-04-25T02:33:16;99830.81;;;9.50;66.76
71948;BME280;63257;55.082;38.772;2023-04-25T02:35:42;99830.81;;;9.50;66.72
71948;BME280;63257;55.082;38.772;2023-04-25T02:38:08;99818.66;;;9.47;66.45
71948;BME280;63257;55.082;38.772;2023-04-25T02:40:34;99822.91;;;9.50;66.42
71948;BME280;63257;55.082;38.772;2023-04-25T02:43:00;99822.81;;;9.51;66.57
71948;BME280;63257;55.082;38.772;2023-04-25T02:45:26;99821.91;;;9.53;67.03
71948;BME280;63257;55.082;38.772;2023-04-25T02:47:52;99816.88;;;9.48;66.65
71948;BME280;63257;55.082;38.772;2023-04-25T02:50:18;99817.47;;;9.53;66.86
71948;BME280;63257;55.082;38.772;2023-04-25T02:52:45;99820.97;;;9.54;66.91
71948;BME280;63257;55.082;38.772;2023-04-25T02:55:18;99819.50;;;9.48;67.36
71948;BME280;63257;55.082;38.772;2023-04-25T02:57:46;99822.63;;;9.56;66.94
71948;BME280;63257;55.082;38.772;2023-04-25T03:00:19;99819.91;;;9.58;67.01
71948;BME280;63257;55.082;38.772;2023-04-25T03:02:45;99824.16;;;9.60;67.24
71948;BME280;63257;55.082;38.772;2023-04-25T03:05:11;99822.38;;;9.61;67.16
71948;BME280;63257;55.082;38.772;2023-04-25T03:07:38;99809.03;;;9.64;66.84
71948;BME280;63257;55.082;38.772;2023-04-25T03:10:06;99821.97;;;9.68;66.99
71948;BME280;63257;55.082;38.772;2023-04-25T03:12:34;99803.53;;;9.68;66.71
71948;BME280;63257;55.082;38.772;2023-04-25T03:15:00;99812.91;;;9.74;66.82
71948;BME280;63257;55.082;38.772;2023-04-25T03:17:27;99798.72;;;9.77;66.78
71948;BME280;63257;55.082;38.772;2023-04-25T03:19:53;99809.72;;;9.85;66.89
71948;BME280;63257;55.082;38.772;2023-04-25T03:22:19;99816.44;;;9.91;66.82
71948;BME280;63257;55.082;38.772;2023-04-25T03:24:45;99816.34;;;9.92;66.53
71948;BME280;63257;55.082;38.772;2023-04-25T03:27:11;99812.63;;;9.96;66.55
71948;BME280;63257;55.082;38.772;2023-04-25T03:29:37;99809.81;;;9.99;66.16
71948;BME280;63257;55.082;38.772;2023-04-25T03:32:04;99820.13;;;10.04;66.19
71948;BME280;63257;55.082;38.772;2023-04-25T03:34:30;99813.59;;;10.11;66.17
71948;BME280;63257;55.082;38.772;2023-04-25T03:36:56;99815.97;;;10.16;65.72
71948;BME280;63257;55.082;38.772;2023-04-25T03:39:22;99796.16;;;10.09;65.71
71948;BME280;63257;55.082;38.772;2023-04-25T03:41:50;99809.69;;;10.18;65.13
71948;BME280;63257;55.082;38.772;2023-04-25T03:44:17;99831.75;;;10.33;65.13
71948;BME280;63257;55.082;38.772;2023-04-25T03:46:44;99829.41;;;10.45;65.57
71948;BME280;63257;55.082;38.772;2023-04-25T03:49:10;99839.66;;;10.51;65.00
71948;BME280;63257;55.082;38.772;2023-04-25T03:51:57;99835.28;;;10.50;64.92
71948;BME280;63257;55.082;38.772;2023-04-25T03:54:24;99838.53;;;10.55;64.96
71948;BME280;63257;55.082;38.772;2023-04-25T03:57:02;99827.13;;;10.55;64.86
71948;BME280;63257;55.082;38.772;2023-04-25T03:59:32;99835.53;;;10.61;64.57
71948;BME280;63257;55.082;38.772;2023-04-25T04:01:57;99826.19;;;10.56;64.75
71948;BME280;63257;55.082;38.772;2023-04-25T04:04:23;99817.56;;;10.52;64.59
71948;BME280;63257;55.082;38.772;2023-04-25T04:06:53;99834.97;;;10.72;64.14
71948;BME280;63257;55.082;38.772;2023-04-25T04:14:43;99819.34;;;10.83;63.50
71948;BME280;63257;55.082;38.772;2023-04-25T04:17:36;99807.44;;;10.76;64.10
71948;BME280;63257;55.082;38.772;2023-04-25T04:20:29;99810.25;;;10.89;64.13
71948;BME280;63257;55.082;38.772;2023-04-25T04:22:58;99815.19;;;10.95;63.95
71948;BME280;63257;55.082;38.772;2023-04-25T04:25:24;99809.53;;;11.01;63.73
71948;BME280;63257;55.082;38.772;2023-04-25T04:28:13;99802.03;;;11.10;63.08
71948;BME280;63257;55.082;38.772;2023-04-25T04:30:47;99781.75;;;11.10;63.09
71948;BME280;63257;55.082;38.772;2023-04-25T04:33:13;99800.59;;;11.34;62.91
71948;BME280;63257;55.082;38.772;2023-04-25T04:35:42;99791.19;;;11.45;62.63
71948;BME280;63257;55.082;38.772;2023-04-25T04:38:09;99768.25;;;11.45;62.56
71948;BME280;63257;55.082;38.772;2023-04-25T04:40:36;99774.06;;;11.66;61.89
71948;BME280;63257;55.082;38.772;2023-04-25T04:43:16;99772.94;;;11.70;61.65
71948;BME280;63257;55.082;38.772;2023-04-25T04:46:02;99770.00;;;11.75;61.33
71948;BME280;63257;55.082;38.772;2023-04-25T04:48:47;99784.06;;;11.90;60.75
71948;BME280;63257;55.082;38.772;2023-04-25T04:51:24;99787.03;;;12.00;60.61
71948;BME280;63257;55.082;38.772;2023-04-25T04:53:52;99777.28;;;12.15;60.34
71948;BME280;63257;55.082;38.772;2023-04-25T04:56:18;99758.97;;;12.12;59.79
71948;BME280;63257;55.082;38.772;2023-04-25T04:58:49;99790.38;;;12.31;60.18
71948;BME280;63257;55.082;38.772;2023-04-25T05:01:38;99791.63;;;12.39;59.62
71948;BME280;63257;55.082;38.772;2023-04-25T05:04:26;99794.22;;;12.54;59.41
71948;BME280;63257;55.082;38.772;2023-04-25T05:06:59;99780.81;;;12.57;59.22
71948;BME280;63257;55.082;38.772;2023-04-25T05:09:48;99785.41;;;12.68;58.94
71948;BME280;63257;55.082;38.772;2023-04-25T05:12:32;99779.25;;;12.67;58.50
71948;BME280;63257;55.082;38.772;2023-04-25T05:15:15;99764.56;;;12.76;58.61
71948;BME280;63257;55.082;38.772;2023-04-25T05:17:54;99760.13;;;12.77;58.61
71948;BME280;63257;55.082;38.772;2023-04-25T05:20:22;99768.63;;;12.82;58.25
71948;BME280;63257;55.082;38.772;2023-04-25T05:23:08;99768.97;;;12.90;58.13
71948;BME280;63257;55.082;38.772;2023-04-25T05:26:03;99763.25;;;12.96;57.88
71948;BME280;63257;55.082;38.772;2023-04-25T05:28:43;99769.66;;;13.06;57.71
71948;BME280;63257;55.082;38.772;2023-04-25T05:31:32;99768.19;;;13.15;57.63
71948;BME280;63257;55.082;38.772;2023-04-25T05:34:06;99779.03;;;13.25;57.52
71948;BME280;63257;55.082;38.772;2023-04-25T05:36:48;99779.16;;;13.36;57.42
71948;BME280;63257;55.082;38.772;2023-04-25T05:39:16;99771.03;;;13.39;56.80
71948;BME280;63257;55.082;38.772;2023-04-25T05:42:03;99777.06;;;13.54;57.00
71948;BME280;63257;55.082;38.772;2023-04-25T05:45:02;99775.72;;;13.62;56.51
71948;BME280;63257;55.082;38.772;2023-04-25T05:47:34;99764.78;;;13.66;56.13
71948;BME280;63257;55.082;38.772;2023-04-25T05:50:15;99777.28;;;13.90;55.31
71948;BME280;63257;55.082;38.772;2023-04-25T05:53:07;99770.50;;;13.99;54.62
71948;BME280;63257;55.082;38.772;2023-04-25T05:55:39;99780.78;;;14.03;54.01
71948;BME280;63257;55.082;38.772;2023-04-25T05:58:23;99776.63;;;14.12;54.17
71948;BME280;63257;55.082;38.772;2023-04-25T06:00:49;99754.31;;;14.15;54.25
71948;BME280;63257;55.082;38.772;2023-04-25T06:03:16;99778.50;;;14.36;53.36
71948;BME280;63257;55.082;38.772;2023-04-25T06:05:42;99777.09;;;14.43;53.35
71948;BME280;63257;55.082;38.772;2023-04-25T06:08:27;99775.38;;;14.55;52.91
71948;BME280;63257;55.082;38.772;2023-04-25T06:10:52;99781.84;;;14.64;52.72
71948;BME280;63257;55.082;38.772;2023-04-25T06:13:19;99761.44;;;14.64;51.12
71948;BME280;63257;55.082;38.772;2023-04-25T06:15:45;99777.09;;;14.80;50.66
71948;BME280;63257;55.082;38.772;2023-04-25T06:18:11;99760.94;;;14.83;50.76
71948;BME280;63257;55.082;38.772;2023-04-25T06:20:37;99771.88;;;15.03;50.41
71948;BME280;63257;55.082;38.772;2023-04-25T06:23:03;99765.50;;;15.05;50.02
71948;BME280;63257;55.082;38.772;2023-04-25T06:25:45;99756.66;;;15.29;49.15
71948;BME280;63257;55.082;38.772;2023-04-25T06:28:11;99769.00;;;15.41;48.99
71948;BME280;63257;55.082;38.772;2023-04-25T06:30:37;99764.47;;;15.66;48.64
71948;BME280;63257;55.082;38.772;2023-04-25T06:33:07;99759.34;;;15.63;48.86
71948;BME280;63257;55.082;38.772;2023-04-25T06:35:34;99760.34;;;15.62;48.67
71948;BME280;63257;55.082;38.772;2023-04-25T06:38:00;99761.19;;;15.63;48.21
71948;BME280;63257;55.082;38.772;2023-04-25T06:40:27;99756.22;;;15.69;48.16
71948;BME280;63257;55.082;38.772;2023-04-25T06:42:53;99757.94;;;15.70;48.24
71948;BME280;63257;55.082;38.772;2023-04-25T06:45:50;99736.28;;;15.64;48.46
71948;BME280;63257;55.082;38.772;2023-04-25T06:48:17;99741.22;;;15.68;48.17
71948;BME280;63257;55.082;38.772;2023-04-25T06:50:43;99742.44;;;15.75;47.62
71948;BME280;63257;55.082;38.772;2023-04-25T06:57:29;99747.31;;;16.04;46.46
71948;BME280;63257;55.082;38.772;2023-04-25T07:00:00;99733.28;;;16.14;44.39
71948;BME280;63257;55.082;38.772;2023-04-25T07:02:29;99719.59;;;16.18;44.51
71948;BME280;63257;55.082;38.772;2023-04-25T07:04:56;99749.81;;;16.84;44.43
71948;BME280;63257;55.082;38.772;2023-04-25T07:11:43;99747.41;;;16.92;42.29
71948;BME280;63257;55.082;38.772;2023-04-25T07:14:09;99750.28;;;17.00;42.75
71948;BME280;63257;55.082;38.772;2023-04-25T07:16:35;99738.09;;;17.07;42.68
71948;BME280;63257;55.082;38.772;2023-04-25T07:19:01;99718.81;;;16.94;42.80
71948;BME280;63257;55.082;38.772;2023-04-25T07:21:27;99724.00;;;16.95;43.32
71948;BME280;63257;55.082;38.772;2023-04-25T07:23:54;99721.78;;;17.01;42.36
71948;BME280;63257;55.082;38.772;2023-04-25T07:26:25;99715.03;;;17.18;42.08
71948;BME280;63257;55.082;38.772;2023-04-25T07:29:17;99722.84;;;17.30;42.02
71948;BME280;63257;55.082;38.772;2023-04-25T07:31:43;99725.03;;;17.25;41.98
71948;BME280;63257;55.082;38.772;2023-04-25T07:34:08;99730.56;;;17.12;42.81
71948;BME280;63257;55.082;38.772;2023-04-25T07:36:37;99729.59;;;17.13;43.12
71948;BME280;63257;55.082;38.772;2023-04-25T07:39:02;99732.28;;;17.13;42.95
71948;BME280;63257;55.082;38.772;2023-04-25T07:41:29;99723.09;;;17.27;43.00
71948;BME280;63257;55.082;38.772;2023-04-25T07:43:55;99729.16;;;17.51;42.24
71948;BME280;63257;55.082;38.772;2023-04-25T07:46:21;99728.34;;;17.91;41.29
71948;BME280;63257;55.082;38.772;2023-04-25T07:48:47;99735.66;;;18.20;41.13
71948;BME280;63257;55.082;38.772;2023-04-25T07:51:13;99728.09;;;18.35;41.13
71948;BME280;63257;55.082;38.772;2023-04-25T07:53:39;99731.50;;;18.46;40.42
71948;BME280;63257;55.082;38.772;2023-04-25T07:56:10;99731.81;;;18.73;40.30
71948;BME280;63257;55.082;38.772;2023-04-25T07:58:39;99734.06;;;18.87;39.67
71948;BME280;63257;55.082;38.772;2023-04-25T08:01:07;99730.28;;;18.99;39.87
71948;BME280;63257;55.082;38.772;2023-04-25T08:03:33;99727.63;;;18.90;39.86
71948;BME280;63257;55.082;38.772;2023-04-25T08:06:01;99714.50;;;18.67;39.96
71948;BME280;63257;55.082;38.772;2023-04-25T08:08:31;99733.09;;;19.08;39.23
71948;BME280;63257;55.082;38.772;2023-04-25T08:10:57;99730.00;;;18.93;38.84
71948;BME280;63257;55.082;38.772;2023-04-25T08:13:23;99722.69;;;18.95;39.01
71948;BME280;63257;55.082;38.772;2023-04-25T08:15:49;99719.31;;;19.03;39.22
71948;BME280;63257;55.082;38.772;2023-04-25T08:18:15;99716.72;;;19.40;38.71
71948;BME280;63257;55.082;38.772;2023-04-25T08:20:42;99714.47;;;19.45;38.18
71948;BME280;63257;55.082;38.772;2023-04-25T08:23:09;99723.09;;;19.77;37.22
71948;BME280;63257;55.082;38.772;2023-04-25T08:25:46;99721.47;;;19.66;36.86
71948;BME280;63257;55.082;38.772;2023-04-25T08:28:15;99713.03;;;19.51;37.03
71948;BME280;63257;55.082;38.772;2023-04-25T08:30:41;99704.34;;;19.39;37.78
71948;BME280;63257;55.082;38.772;2023-04-25T08:33:10;99698.53;;;19.44;37.80
71948;BME280;63257;55.082;38.772;2023-04-25T08:35:54;99708.97;;;19.94;36.75
71948;BME280;63257;55.082;38.772;2023-04-25T08:38:20;99692.03;;;20.22;36.75
71948;BME280;63257;55.082;38.772;2023-04-25T08:40:49;99690.09;;;20.42;35.90
71948;BME280;63257;55.082;38.772;2023-04-25T08:43:20;99684.09;;;20.48;36.08
71948;BME280;63257;55.082;38.772;2023-04-25T08:45:46;99668.72;;;20.32;35.71
71948;BME280;63257;55.082;38.772;2023-04-25T08:48:32;99686.38;;;20.25;35.59
71948;BME280;63257;55.082;38.772;2023-04-25T08:50:58;99681.72;;;20.27;36.30
71948;BME280;63257;55.082;38.772;2023-04-25T08:53:27;99678.84;;;20.10;35.87
71948;BME280;63257;55.082;38.772;2023-04-25T08:55:54;99676.34;;;20.09;36.23
71948;BME280;63257;55.082;38.772;2023-04-25T08:58:21;99666.22;;;20.21;36.02
71948;BME280;63257;55.082;38.772;2023-04-25T09:00:48;99657.19;;;20.22;35.33
71948;BME280;63257;55.082;38.772;2023-04-25T09:03:16;99667.25;;;20.38;35.21
71948;BME280;63257;55.082;38.772;2023-04-25T09:05:43;99664.50;;;20.47;35.50
71948;BME280;63257;55.082;38.772;2023-04-25T09:08:09;99653.41;;;20.42;35.41
71948;BME280;63257;55.082;38.772;2023-04-25T09:10:35;99653.63;;;20.49;35.24
71948;BME280;63257;55.082;38.772;2023-04-25T09:13:08;99657.84;;;20.51;35.57
71948;BME280;63257;55.082;38.772;2023-04-25T09:15:56;99640.75;;;20.34;34.43
71948;BME280;63257;55.082;38.772;2023-04-25T09:18:52;99638.44;;;20.40;34.69
71948;BME280;63257;55.082;38.772;2023-04-25T09:21:22;99629.50;;;20.31;35.13
71948;BME280;63257;55.082;38.772;2023-04-25T09:23:49;99617.47;;;20.17;35.49
71948;BME280;63257;55.082;38.772;2023-04-25T09:26:19;99625.53;;;20.35;35.70
71948;BME280;63257;55.082;38.772;2023-04-25T09:28:46;99620.09;;;20.45;34.52
71948;BME280;63257;55.082;38.772;2023-04-25T09:31:22;99623.84;;;20.34;34.68
71948;BME280;63257;55.082;38.772;2023-04-25T09:34:01;99614.31;;;20.58;34.16
71948;BME280;63257;55.082;38.772;2023-04-25T09:36:29;99600.00;;;20.85;34.35
71948;BME280;63257;55.082;38.772;2023-04-25T09:39:12;99614.66;;;20.99;34.27
71948;BME280;63257;55.082;38.772;2023-04-25T09:41:41;99615.09;;;21.12;33.92
71948;BME280;63257;55.082;38.772;2023-04-25T09:44:08;99599.41;;;21.26;33.75
71948;BME280;63257;55.082;38.772;2023-04-25T09:46:37;99596.03;;;21.24;32.75
71948;BME280;63257;55.082;38.772;2023-04-25T09:49:08;99599.75;;;21.23;32.96
71948;BME280;63257;55.082;38.772;2023-04-25T09:52:00;99590.22;;;21.02;32.41
71948;BME280;63257;55.082;38.772;2023-04-25T09:54:33;99596.03;;;21.24;32.99
71948;BME280;63257;55.082;38.772;2023-04-25T09:57:23;99595.88;;;21.25;32.15
71948;BME280;63257;55.082;38.772;2023-04-25T09:59:54;99595.31;;;21.48;31.54
71948;BME280;63257;55.082;38.772;2023-04-25T10:02:22;99590.34;;;21.53;31.65
71948;BME280;63257;55.082;38.772;2023-04-25T10:09:04;99601.03;;;21.45;32.34
71948;BME280;63257;55.082;38.772;2023-04-25T10:11:32;99582.22;;;21.45;31.97
71948;BME280;63257;55.082;38.772;2023-04-25T10:14:00;99583.06;;;21.45;31.46
71948;BME280;63257;55.082;38.772;2023-04-25T10:16:26;99580.09;;;21.22;31.42
71948;BME280;63257;55.082;38.772;2023-04-25T10:18:53;99576.16;;;21.43;31.72
71948;BME280;63257;55.082;38.772;2023-04-25T10:21:20;99579.84;;;21.68;32.14
71948;BME280;63257;55.082;38.772;2023-04-25T10:23:48;99576.69;;;21.81;31.58
71948;BME280;63257;55.082;38.772;2023-04-25T10:26:14;99570.78;;;21.77;31.60
71948;BME280;63257;55.082;38.772;2023-04-25T10:29:01;99565.25;;;21.79;31.41
71948;BME280;63257;55.082;38.772;2023-04-25T10:31:29;99547.94;;;21.73;31.57
71948;BME280;63257;55.082;38.772;2023-04-25T10:33:55;99551.00;;;21.86;31.71
71948;BME280;63257;55.082;38.772;2023-04-25T10:36:22;99557.09;;;22.05;30.81
71948;BME280;63257;55.082;38.772;2023-04-25T10:38:49;99545.47;;;21.96;30.48
71948;BME280;63257;55.082;38.772;2023-04-25T10:41:21;99546.19;;;22.07;31.07
71948;BME280;63257;55.082;38.772;2023-04-25T10:43:49;99529.88;;;22.16;31.23
71948;BME280;63257;55.082;38.772;2023-04-25T10:46:26;99545.34;;;22.31;30.55
71948;BME280;63257;55.082;38.772;2023-04-25T10:54:08;99524.97;;;21.87;31.38
71948;BME280;63257;55.082;38.772;2023-04-25T10:56:38;99516.44;;;21.92;30.91
71948;BME280;63257;55.082;38.772;2023-04-25T10:59:12;99523.34;;;22.11;30.87
71948;BME280;63257;55.082;38.772;2023-04-25T11:01:52;99519.47;;;21.97;31.25
71948;BME280;63257;55.082;38.772;2023-04-25T11:04:23;99501.66;;;21.96;31.17
71948;BME280;63257;55.082;38.772;2023-04-25T11:09:28;99467.38;;;21.73;30.04
71948;BME280;63257;55.082;38.772;2023-04-25T11:11:55;99488.22;;;21.88;29.94
71948;BME280;63257;55.082;38.772;2023-04-25T11:14:21;99457.31;;;21.75;30.45
71948;BME280;63257;55.082;38.772;2023-04-25T11:16:52;99489.56;;;22.16;29.60
71948;BME280;63257;55.082;38.772;2023-04-25T11:19:19;99481.34;;;22.59;29.65
71948;BME280;63257;55.082;38.772;2023-04-25T11:21:46;99488.78;;;22.97;29.65
71948;BME280;63257;55.082;38.772;2023-04-25T11:24:11;99467.72;;;23.09;28.46
71948;BME280;63257;55.082;38.772;2023-04-25T11:26:37;99469.06;;;23.52;27.63
71948;BME280;63257;55.082;38.772;2023-04-25T11:29:03;99450.53;;;23.26;28.27
71948;BME280;63257;55.082;38.772;2023-04-25T11:31:29;99469.41;;;23.72;27.50
71948;BME280;63257;55.082;38.772;2023-04-25T11:33:58;99456.00;;;23.87;27.78
71948;BME280;63257;55.082;38.772;2023-04-25T11:40:00;99448.88;;;24.03;27.48
71948;BME280;63257;55.082;38.772;2023-04-25T11:42:26;99431.25;;;24.15;27.50
71948;BME280;63257;55.082;38.772;2023-04-25T11:44:52;99428.72;;;24.29;26.32
71948;BME280;63257;55.082;38.772;2023-04-25T11:47:18;99429.00;;;24.19;26.78
71948;BME280;63257;55.082;38.772;2023-04-25T11:49:44;99424.09;;;24.22;26.61
71948;BME280;63257;55.082;38.772;2023-04-25T11:52:09;99422.63;;;23.97;27.13
71948;BME280;63257;55.082;38.772;2023-04-25T11:54:36;99426.03;;;23.44;27.58
71948;BME280;63257;55.082;38.772;2023-04-25T11:57:03;99425.31;;;23.11;28.54
71948;BME280;63257;55.082;38.772;2023-04-25T11:59:29;99420.75;;;22.80;28.29
71948;BME280;63257;55.082;38.772;2023-04-25T12:01:55;99405.88;;;22.52;28.38
71948;BME280;63257;55.082;38.772;2023-04-25T12:04:24;99407.75;;;22.44;28.43
71948;BME280;63257;55.082;38.772;2023-04-25T12:06:54;99401.88;;;22.40;29.05
71948;BME280;63257;55.082;38.772;2023-04-25T12:09:31;99392.84;;;22.08;29.25
71948;BME280;63257;55.082;38.772;2023-04-25T12:11:58;99397.19;;;22.34;29.78
71948;BME280;63257;55.082;38.772;2023-04-25T12:14:27;99385.75;;;23.28;28.45
71948;BME280;63257;55.082;38.772;2023-04-25T12:16:55;99381.31;;;24.19;27.75
71948;BME280;63257;55.082;38.772;2023-04-25T12:19:23;99375.31;;;24.62;27.27
71948;BME280;63257;55.082;38.772;2023-04-25T12:21:50;99369.03;;;24.17;27.51
71948;BME280;63257;55.082;38.772;2023-04-25T12:24:23;99375.13;;;23.96;27.89
71948;BME280;63257;55.082;38.772;2023-04-25T12:26:53;99348.63;;;23.61;28.35
71948;BME280;63257;55.082;38.772;2023-04-25T12:29:22;99324.53;;;23.21;28.92
71948;BME280;63257;55.082;38.772;2023-04-25T12:31:50;99349.53;;;22.99;29.28
71948;BME280;63257;55.082;38.772;2023-04-25T12:34:22;99359.09;;;22.70;29.72
71948;BME280;63257;55.082;38.772;2023-04-25T12:36:49;99345.59;;;22.39;30.54
71948;BME280;63257;55.082;38.772;2023-04-25T12:39:19;99342.06;;;22.30;30.71
71948;BME280;63257;55.082;38.772;2023-04-25T12:41:46;99338.06;;;22.26;30.96
71948;BME280;63257;55.082;38.772;2023-04-25T12:44:12;99317.09;;;22.61;30.31
71948;BME280;63257;55.082;38.772;2023-04-25T12:46:39;99334.53;;;23.04;29.68
71948;BME280;63257;55.082;38.772;2023-04-25T12:49:07;99324.72;;;23.12;29.71
71948;BME280;63257;55.082;38.772;2023-04-25T12:51:35;99329.66;;;23.08;29.92
71948;BME280;63257;55.082;38.772;2023-04-25T12:54:02;99320.34;;;23.11;29.74
71948;BME280;63257;55.082;38.772;2023-04-25T12:56:30;99308.53;;;22.57;29.85
71948;BME280;63257;55.082;38.772;2023-04-25T12:58:57;99323.59;;;22.35;30.91
71948;BME280;63257;55.082;38.772;2023-04-25T13:01:24;99313.38;;;22.14;31.29
71948;BME280;63257;55.082;38.772;2023-04-25T13:03:50;99307.69;;;22.00;31.75
71948;BME280;63257;55.082;38.772;2023-04-25T13:06:17;99295.50;;;21.57;32.41
71948;BME280;63257;55.082;38.772;2023-04-25T13:08:44;99309.06;;;21.47;32.84
71948;BME280;63257;55.082;38.772;2023-04-25T13:11:10;99296.16;;;21.42;33.49
71948;BME280;63257;55.082;38.772;2023-04-25T13:13:37;99290.28;;;21.47;32.91
71948;BME280;63257;55.082;38.772;2023-04-25T13:16:04;99275.84;;;21.48;33.26
71948;BME280;63257;55.082;38.772;2023-04-25T13:18:31;99278.38;;;21.66;32.77
71948;BME280;63257;55.082;38.772;2023-04-25T13:20:58;99278.69;;;21.96;32.83
71948;BME280;63257;55.082;38.772;2023-04-25T13:23:28;99266.38;;;22.10;32.13
71948;BME280;63257;55.082;38.772;2023-04-25T13:25:55;99265.69;;;22.08;32.09
71948;BME280;63257;55.082;38.772;2023-04-25T13:28:27;99258.13;;;22.11;31.88
71948;BME280;63257;55.082;38.772;2023-04-25T13:30:53;99261.53;;;22.05;31.90
71948;BME280;63257;55.082;38.772;2023-04-25T13:33:19;99257.91;;;21.73;32.62
71948;BME280;63257;55.082;38.772;2023-04-25T13:35:47;99251.53;;;21.41;33.55
71948;BME280;63257;55.082;38.772;2023-04-25T13:38:21;99256.56;;;21.19;33.71
71948;BME280;63257;55.082;38.772;2023-04-25T13:40:47;99248.03;;;21.08;33.99